createdAt,value
2023-04-18T00:00:25.156Z,7.67
2023-04-18T00:02:54.272Z,6.95
2023-04-18T00:05:28.158Z,7.25
2023-04-18T00:08:01.149Z,7.00
2023-04-18T00:10:27.891Z,7.78
2023-04-18T00:12:54.924Z,7.90
2023-04-18T00:15:28.168Z,7.67
2023-04-18T00:17:56.947Z,7.60
2023-04-18T00:20:33.152Z,7.67
2023-04-18T00:23:00.933Z,7.30
2023-04-18T00:25:34.121Z,7.37
2023-04-18T00:28:00.870Z,7.33
2023-04-18T00:30:34.208Z,7.40
2023-04-18T00:33:01.243Z,7.50
2023-04-18T00:35:34.195Z,7.90
2023-04-18T00:38:01.038Z,7.83
2023-04-18T00:40:34.188Z,7.90
2023-04-18T00:43:01.052Z,7.80
2023-04-18T00:45:34.193Z,8.13
2023-04-18T00:48:07.276Z,7.37
2023-04-18T00:50:42.037Z,7.50
2023-04-18T00:53:22.145Z,7.40
2023-04-18T00:55:55.196Z,7.77
2023-04-18T00:58:29.256Z,7.90
2023-04-18T01:00:55.997Z,7.60
2023-04-18T01:03:29.491Z,7.37
2023-04-18T01:05:57.675Z,7.90
2023-04-18T01:08:31.171Z,7.73
2023-04-18T01:10:58.031Z,7.77
2023-04-18T01:13:31.211Z,7.97
2023-04-18T01:15:59.202Z,8.33
2023-04-18T01:18:26.940Z,7.57
2023-04-18T01:21:01.363Z,7.83
2023-04-18T01:23:28.164Z,7.77
2023-04-18T01:26:01.182Z,8.57
2023-04-18T01:28:28.015Z,7.57
2023-04-18T01:31:01.298Z,7.47
2023-04-18T01:33:28.077Z,7.43
2023-04-18T01:36:01.235Z,8.33
2023-04-18T01:38:34.209Z,8.57
2023-04-18T01:41:07.198Z,8.17
2023-04-18T01:43:33.992Z,7.90
2023-04-18T01:46:07.223Z,7.57
2023-04-18T01:48:40.529Z,8.03
2023-04-18T01:51:14.306Z,8.03
2023-04-18T01:53:47.271Z,7.50
2023-04-18T01:56:14.395Z,8.23
2023-04-18T01:58:48.205Z,8.07
2023-04-18T02:01:15.639Z,7.60
2023-04-18T02:03:49.349Z,8.80
2023-04-18T02:06:16.183Z,8.60
2023-04-18T02:08:49.220Z,7.80
2023-04-18T02:11:22.508Z,8.03
2023-04-18T02:13:56.223Z,8.00
2023-04-18T02:16:22.982Z,7.93
2023-04-18T02:18:59.194Z,8.90
2023-04-18T02:21:25.972Z,8.50
2023-04-18T02:23:59.212Z,8.80
2023-04-18T02:26:25.958Z,8.50
2023-04-18T02:28:59.218Z,8.63
2023-04-18T02:31:26.000Z,9.00
2023-04-18T02:33:52.834Z,8.43
2023-04-18T02:36:26.227Z,8.83
2023-04-18T02:38:52.941Z,9.17
2023-04-18T02:41:26.222Z,8.93
2023-04-18T02:43:54.311Z,9.17
2023-04-18T02:46:28.299Z,9.13
2023-04-18T02:48:55.079Z,8.73
2023-04-18T02:51:35.306Z,8.40
2023-04-18T02:54:08.283Z,8.90
2023-04-18T02:56:46.196Z,9.20
2023-04-18T02:59:12.953Z,9.20
2023-04-18T03:01:39.939Z,8.82
2023-04-18T03:04:13.379Z,8.93
2023-04-18T03:06:47.216Z,8.97
2023-04-18T03:09:21.200Z,9.07
2023-04-18T03:11:48.092Z,9.37
2023-04-18T03:14:21.256Z,9.57
2023-04-18T03:16:48.130Z,9.10
2023-04-18T03:19:21.270Z,9.00
2023-04-18T03:21:48.169Z,9.30
2023-04-18T03:24:21.327Z,9.50
2023-04-18T03:26:48.160Z,9.53
2023-04-18T03:29:21.222Z,9.67
2023-04-18T03:31:54.236Z,9.50
2023-04-18T03:34:27.197Z,9.03
2023-04-18T03:37:01.260Z,9.30
2023-04-18T03:39:27.976Z,9.67
2023-04-18T03:42:01.213Z,10.40
2023-04-18T03:44:34.269Z,9.27
2023-04-18T03:47:01.183Z,9.20
2023-04-18T03:49:27.895Z,9.80
2023-04-18T03:52:01.279Z,9.00
2023-04-18T03:54:34.518Z,9.38
2023-04-18T03:57:08.211Z,8.95
2023-04-18T03:59:35.403Z,8.73
2023-04-18T04:02:08.342Z,9.55
2023-04-18T04:04:35.205Z,8.50
2023-04-18T04:07:08.191Z,9.73
2023-04-18T04:09:34.885Z,9.48
2023-04-18T04:12:09.250Z,8.75
2023-04-18T04:14:42.239Z,9.02
2023-04-18T04:17:15.265Z,8.65
2023-04-18T04:19:48.190Z,9.38
2023-04-18T04:22:14.916Z,9.10
2023-04-18T04:24:55.283Z,8.68
2023-04-18T04:27:22.873Z,8.67
2023-04-18T04:29:56.271Z,8.97
2023-04-18T04:32:23.107Z,9.33
2023-04-18T04:34:57.222Z,9.03
2023-04-18T04:37:23.968Z,8.87
2023-04-18T04:39:57.221Z,8.70
2023-04-18T04:42:25.492Z,9.27
2023-04-18T04:45:16.279Z,9.00
2023-04-18T04:47:56.321Z,9.20
2023-04-18T04:50:29.343Z,8.70
2023-04-18T04:53:02.433Z,9.70
2023-04-18T04:55:36.254Z,8.50
2023-04-18T04:58:02.994Z,9.97
2023-04-18T05:00:36.238Z,9.23
2023-04-18T05:03:03.139Z,9.53
2023-04-18T05:05:30.455Z,9.40
2023-04-18T05:08:03.344Z,9.27
2023-04-18T05:10:30.721Z,8.88
2023-04-18T05:12:57.591Z,9.30
2023-04-18T05:15:31.493Z,10.00
2023-04-18T05:18:05.362Z,9.00
2023-04-18T05:20:32.223Z,8.98
2023-04-18T05:23:05.275Z,8.83
2023-04-18T05:25:39.300Z,9.40
2023-04-18T05:28:12.294Z,8.57
2023-04-18T05:30:48.300Z,9.07
2023-04-18T05:33:21.330Z,9.27
2023-04-18T05:35:48.101Z,8.23
2023-04-18T05:38:22.283Z,8.43
2023-04-18T05:40:58.268Z,7.80
2023-04-18T05:43:24.966Z,7.88
2023-04-18T05:45:59.331Z,8.05
2023-04-18T05:48:26.111Z,8.03
2023-04-18T05:50:59.296Z,7.70
2023-04-18T05:53:32.685Z,7.77
2023-04-18T05:56:06.380Z,7.65
2023-04-18T05:58:33.102Z,7.23
2023-04-18T06:01:06.332Z,7.88
2023-04-18T06:03:39.558Z,7.25
2023-04-18T06:06:13.265Z,7.75
2023-04-18T06:08:40.653Z,7.03
2023-04-18T06:11:14.397Z,7.70
2023-04-18T06:13:48.313Z,7.50
2023-04-18T06:16:15.493Z,7.55
2023-04-18T06:18:49.253Z,7.32
2023-04-18T06:21:16.047Z,7.23
2023-04-18T06:23:49.322Z,7.73
2023-04-18T06:26:16.281Z,7.97
2023-04-18T06:28:49.418Z,6.78
2023-04-18T06:31:16.664Z,6.43
2023-04-18T06:33:50.336Z,6.88
2023-04-18T06:36:17.205Z,7.00
2023-04-18T06:38:50.321Z,7.18
2023-04-18T06:41:17.143Z,6.82
2023-04-18T06:43:55.756Z,6.82
2023-04-18T06:46:35.300Z,7.13
2023-04-18T06:49:02.050Z,6.93
2023-04-18T06:51:35.332Z,6.82
2023-04-18T06:54:15.435Z,7.03
2023-04-18T06:56:49.301Z,7.43
2023-04-18T06:59:16.145Z,6.68
2023-04-18T07:01:49.524Z,6.22
2023-04-18T07:04:16.556Z,6.72
2023-04-18T07:06:50.415Z,6.07
2023-04-18T07:09:23.320Z,6.15
2023-04-18T07:11:57.317Z,6.70
2023-04-18T07:14:40.130Z,6.13
2023-04-18T07:17:13.774Z,6.60
2023-04-18T07:19:41.766Z,6.68
2023-04-18T07:22:15.303Z,7.30
2023-04-18T07:24:42.434Z,7.38
2023-04-18T07:27:16.412Z,5.85
2023-04-18T07:29:49.329Z,6.78
2023-04-18T07:32:16.160Z,6.07
2023-04-18T07:34:49.372Z,5.95
2023-04-18T07:37:18.566Z,6.15
2023-04-18T07:39:52.433Z,5.53
2023-04-18T07:42:19.255Z,6.35
2023-04-18T07:44:52.367Z,6.20
2023-04-18T07:47:26.120Z,6.53
2023-04-18T07:50:00.390Z,6.28
2023-04-18T07:52:47.355Z,5.45
2023-04-18T07:55:21.376Z,5.82
2023-04-18T07:57:51.020Z,6.47
2023-04-18T08:00:25.426Z,6.50
2023-04-18T08:02:52.731Z,6.15
2023-04-18T08:05:26.547Z,6.47
2023-04-18T08:08:00.366Z,6.22
2023-04-18T08:10:27.357Z,6.57
2023-04-18T08:13:00.386Z,7.40
2023-04-18T08:15:32.879Z,7.00
2023-04-18T08:18:07.461Z,7.32
2023-04-18T08:20:36.483Z,6.90
2023-04-18T08:23:12.318Z,7.05
2023-04-18T08:25:39.951Z,6.85
2023-04-18T08:28:13.318Z,6.63
2023-04-18T08:30:40.141Z,6.72
2023-04-18T08:33:14.434Z,7.28
2023-04-18T08:35:41.429Z,7.80
2023-04-18T08:38:14.527Z,7.65
2023-04-18T08:40:47.406Z,7.95
2023-04-18T08:43:15.369Z,9.00
2023-04-18T08:45:50.482Z,8.07
2023-04-18T08:48:18.493Z,8.70
2023-04-18T08:50:52.385Z,7.75
2023-04-18T08:53:26.959Z,7.80
2023-04-18T08:56:03.547Z,8.48
2023-04-18T08:58:32.687Z,8.60
2023-04-18T09:01:06.425Z,9.00
2023-04-18T09:03:41.527Z,8.65
2023-04-18T09:06:21.392Z,8.77
2023-04-18T09:09:01.974Z,8.98
2023-04-18T09:11:37.452Z,8.75
2023-04-18T09:14:04.510Z,9.00
2023-04-18T09:16:53.458Z,8.43
2023-04-18T09:19:28.477Z,8.65
2023-04-18T09:22:07.463Z,8.05
2023-04-18T09:24:41.588Z,9.10
2023-04-18T09:27:15.758Z,8.70
2023-04-18T09:29:52.433Z,8.60
2023-04-18T09:32:31.429Z,8.15
2023-04-18T09:35:09.372Z,7.75
2023-04-18T09:37:36.194Z,8.30
2023-04-18T09:40:23.474Z,8.65
2023-04-18T09:42:57.269Z,7.97
2023-04-18T09:45:32.442Z,7.47
2023-04-18T09:47:59.445Z,7.25
2023-04-18T09:50:32.428Z,7.40
2023-04-18T09:53:13.485Z,7.60
2023-04-18T09:55:58.445Z,7.13
2023-04-18T09:58:28.004Z,7.88
2023-04-18T10:01:02.488Z,7.60
2023-04-18T10:03:39.913Z,8.18
2023-04-18T10:06:14.411Z,8.18
2023-04-18T10:08:44.463Z,8.30
2023-04-18T10:11:19.204Z,8.02
2023-04-18T10:13:49.682Z,8.15
2023-04-18T10:16:23.487Z,8.60
2023-04-18T10:18:51.540Z,8.52
2023-04-18T10:21:18.373Z,8.85
2023-04-18T10:23:55.422Z,8.77
2023-04-18T10:26:50.552Z,8.25
2023-04-18T10:29:25.398Z,8.70
2023-04-18T10:31:52.255Z,9.57
2023-04-18T10:34:26.387Z,8.40
2023-04-18T10:37:06.214Z,9.00
2023-04-18T10:39:55.488Z,9.30
2023-04-18T10:42:47.107Z,8.90
2023-04-18T10:45:28.362Z,9.07
2023-04-18T10:48:30.100Z,8.45
2023-04-18T10:51:23.503Z,8.98
2023-04-18T10:54:04.594Z,8.80
2023-04-18T10:56:38.568Z,9.70
2023-04-18T10:59:12.495Z,9.45
2023-04-18T11:01:53.427Z,9.73
2023-04-18T11:04:20.848Z,10.00
2023-04-18T11:07:01.432Z,9.75
2023-04-18T11:09:28.242Z,8.93
2023-04-18T11:12:15.436Z,8.77
2023-04-18T11:14:43.853Z,9.40
2023-04-18T11:17:26.583Z,9.15
2023-04-18T11:20:18.632Z,9.80
2023-04-18T11:22:56.489Z,9.35
2023-04-18T11:25:36.755Z,9.75
2023-04-18T11:28:11.864Z,8.88
2023-04-18T11:30:42.606Z,8.93
2023-04-18T11:33:17.578Z,9.15
2023-04-18T11:35:46.297Z,9.70
2023-04-18T11:38:21.310Z,10.20
2023-04-18T11:40:50.684Z,8.90
2023-04-18T11:43:30.567Z,8.98
2023-04-18T11:46:06.530Z,9.68
2023-04-18T11:48:48.486Z,9.82
2023-04-18T11:51:43.813Z,9.43
2023-04-18T11:54:42.463Z,9.90
2023-04-18T11:57:25.519Z,9.80
2023-04-18T12:00:06.460Z,9.43
2023-04-18T12:02:51.789Z,8.98
2023-04-18T12:05:36.936Z,9.40
2023-04-18T12:08:17.514Z,10.25
2023-04-18T12:10:58.474Z,9.50
2023-04-18T12:13:31.231Z,9.25
2023-04-18T12:16:04.513Z,9.27
2023-04-18T12:18:31.715Z,9.90
2023-04-18T12:21:08.489Z,8.93
2023-04-18T12:23:37.853Z,9.02
2023-04-18T12:26:12.613Z,9.07
2023-04-18T12:28:45.568Z,9.43
2023-04-18T12:31:14.875Z,8.75
2023-04-18T12:33:48.504Z,9.80
2023-04-18T12:36:15.351Z,9.63
2023-04-18T12:38:52.576Z,9.48
2023-04-18T12:41:19.493Z,8.65
2023-04-18T12:43:52.501Z,8.98
2023-04-18T12:46:19.364Z,9.45
2023-04-18T12:48:52.484Z,8.38
2023-04-18T12:51:26.775Z,9.38
2023-04-18T12:54:06.588Z,7.82
2023-04-18T12:56:39.536Z,8.68
2023-04-18T12:59:12.763Z,7.68
2023-04-18T13:01:46.604Z,8.13
2023-04-18T13:04:13.998Z,7.78
2023-04-18T13:06:47.528Z,8.13
2023-04-18T13:09:14.563Z,8.27
2023-04-18T13:11:49.629Z,7.85
2023-04-18T13:14:16.567Z,7.80
2023-04-18T13:16:50.693Z,7.10
2023-04-18T13:19:17.448Z,8.05
2023-04-18T13:21:50.578Z,8.70
2023-04-18T13:24:17.362Z,7.22
2023-04-18T13:26:50.742Z,7.95
2023-04-18T13:29:17.653Z,8.32
2023-04-18T13:31:57.599Z,7.82
2023-04-18T13:34:30.546Z,7.95
2023-04-18T13:36:59.075Z,8.10
2023-04-18T13:39:32.681Z,7.85
2023-04-18T13:41:59.588Z,7.55
2023-04-18T13:44:32.547Z,7.80
2023-04-18T13:47:00.874Z,7.72
2023-04-18T13:49:34.536Z,7.25
2023-04-18T13:52:07.730Z,7.70
2023-04-18T13:54:48.550Z,7.05
2023-04-18T13:57:15.578Z,7.53
2023-04-18T13:59:48.601Z,6.68
2023-04-18T14:02:15.531Z,6.80
2023-04-18T14:04:48.787Z,6.45
2023-04-18T14:07:22.593Z,7.13
2023-04-18T14:09:49.871Z,8.10
2023-04-18T14:12:23.519Z,7.50
2023-04-18T14:14:50.383Z,7.50
2023-04-18T14:17:23.605Z,7.40
2023-04-18T14:19:51.757Z,7.15
2023-04-18T14:22:25.496Z,7.32
2023-04-18T14:24:54.039Z,6.68
2023-04-18T14:27:27.645Z,7.05
2023-04-18T14:30:00.627Z,7.25
2023-04-18T14:32:40.708Z,7.00
2023-04-18T14:35:08.266Z,7.25
2023-04-18T14:37:42.646Z,7.03
2023-04-18T14:40:11.891Z,6.65
2023-04-18T14:42:45.582Z,6.72
2023-04-18T14:45:17.149Z,6.88
2023-04-18T14:47:50.831Z,6.47
2023-04-18T14:50:24.636Z,6.85
2023-04-18T14:53:04.623Z,6.78
2023-04-18T14:55:44.585Z,6.72
2023-04-18T14:58:11.490Z,6.88
2023-04-18T15:00:44.644Z,7.07
2023-04-18T15:03:17.634Z,6.72
2023-04-18T15:05:46.768Z,6.40
2023-04-18T15:08:21.621Z,5.85
2023-04-18T15:10:54.552Z,6.43
2023-04-18T15:13:21.431Z,5.72
2023-04-18T15:16:01.699Z,6.05
2023-04-18T15:18:35.599Z,5.68
2023-04-18T15:21:02.589Z,6.13
2023-04-18T15:23:35.662Z,6.30
2023-04-18T15:26:09.603Z,5.68
2023-04-18T15:28:36.324Z,6.45
2023-04-18T15:31:09.627Z,6.25
2023-04-18T15:33:36.473Z,6.53
2023-04-18T15:36:09.619Z,6.10
2023-04-18T15:38:36.421Z,5.95
2023-04-18T15:41:09.665Z,5.53
2023-04-18T15:43:36.496Z,5.55
2023-04-18T15:46:10.697Z,5.57
2023-04-18T15:48:44.582Z,5.00
2023-04-18T15:51:11.675Z,5.45
2023-04-18T15:53:51.754Z,5.18
2023-04-18T15:56:24.740Z,4.82
2023-04-18T15:58:57.751Z,5.28
2023-04-18T16:01:24.696Z,4.97
2023-04-18T16:03:58.749Z,5.20
2023-04-18T16:06:26.860Z,4.75
2023-04-18T16:08:53.687Z,4.75
2023-04-18T16:11:28.654Z,4.60
2023-04-18T16:13:56.283Z,4.60
2023-04-18T16:16:29.719Z,4.90
2023-04-18T16:19:02.686Z,4.35
2023-04-18T16:21:35.624Z,4.30
2023-04-18T16:24:02.642Z,4.82
2023-04-18T16:26:35.615Z,4.90
2023-04-18T16:29:02.367Z,5.25
2023-04-18T16:31:35.675Z,5.20
2023-04-18T16:34:03.465Z,5.00
2023-04-18T16:36:41.804Z,5.03
2023-04-18T16:39:08.764Z,4.82
2023-04-18T16:41:41.778Z,5.10
2023-04-18T16:44:08.535Z,5.20
2023-04-18T16:46:41.748Z,5.20
2023-04-18T16:49:14.775Z,5.00
2023-04-18T16:51:44.668Z,5.05
2023-04-18T16:54:24.687Z,5.05
2023-04-18T16:56:51.487Z,5.10
2023-04-18T16:59:24.633Z,5.35
2023-04-18T17:01:51.542Z,5.38
2023-04-18T17:04:24.656Z,5.22
2023-04-18T17:06:52.251Z,4.63
2023-04-18T17:09:26.672Z,5.18
2023-04-18T17:11:59.691Z,5.03
2023-04-18T17:14:32.634Z,5.00
2023-04-18T17:16:59.407Z,4.82
2023-04-18T17:19:26.493Z,4.65
2023-04-18T17:21:59.665Z,5.90
2023-04-18T17:24:26.554Z,5.07
2023-04-18T17:27:04.815Z,5.45
2023-04-18T17:29:31.860Z,5.30
2023-04-18T17:32:05.714Z,5.13
2023-04-18T17:34:32.659Z,5.40
2023-04-18T17:37:05.729Z,4.95
2023-04-18T17:39:33.099Z,5.75
2023-04-18T17:42:07.713Z,5.32
2023-04-18T17:44:34.469Z,5.60
2023-04-18T17:47:08.675Z,5.95
2023-04-18T17:49:36.235Z,6.00
2023-04-18T17:52:03.778Z,5.72
2023-04-18T17:54:37.690Z,5.53
2023-04-18T17:57:11.537Z,5.80
2023-04-18T17:59:44.716Z,6.00
2023-04-18T18:02:12.084Z,6.13
2023-04-18T18:04:45.633Z,5.95
2023-04-18T18:07:12.548Z,6.35
2023-04-18T18:09:45.639Z,6.10
2023-04-18T18:12:12.554Z,6.55
2023-04-18T18:14:47.666Z,6.00
2023-04-18T18:17:14.611Z,5.85
2023-04-18T18:19:47.802Z,5.45
2023-04-18T18:22:14.903Z,6.18
2023-04-18T18:24:53.775Z,5.90
2023-04-18T18:27:20.943Z,6.32
2023-04-18T18:29:54.666Z,6.35
2023-04-18T18:32:28.791Z,6.28
2023-04-18T18:35:01.785Z,6.38
2023-04-18T18:37:34.711Z,6.47
2023-04-18T18:40:04.967Z,5.80
2023-04-18T18:42:38.749Z,6.25
2023-04-18T18:45:06.273Z,6.28
2023-04-18T18:47:40.761Z,6.18
2023-04-18T18:50:14.916Z,6.63
2023-04-18T18:52:49.723Z,6.75
2023-04-18T18:55:23.287Z,6.55
2023-04-18T18:57:56.702Z,6.65
2023-04-18T19:00:29.725Z,6.40
2023-04-18T19:03:02.889Z,7.07
2023-04-18T19:05:29.811Z,6.38
2023-04-18T19:08:03.778Z,5.97
2023-04-18T19:10:31.178Z,6.53
2023-04-18T19:13:04.727Z,5.85
2023-04-18T19:15:37.766Z,6.40
2023-04-18T19:18:04.707Z,6.30
2023-04-18T19:20:37.780Z,6.57
2023-04-18T19:23:10.814Z,6.57
2023-04-18T19:25:44.691Z,6.43
2023-04-18T19:28:13.076Z,7.10
2023-04-18T19:30:47.737Z,6.25
2023-04-18T19:33:14.836Z,6.28
2023-04-18T19:35:49.738Z,6.57
2023-04-18T19:38:16.552Z,6.47
2023-04-18T19:40:49.685Z,6.68
2023-04-18T19:43:22.713Z,6.38
2023-04-18T19:46:03.811Z,6.32
2023-04-18T19:48:30.659Z,6.32
2023-04-18T19:50:57.752Z,6.35
2023-04-18T19:53:30.881Z,6.13
2023-04-18T19:56:04.491Z,5.97
2023-04-18T19:58:42.808Z,6.00
2023-04-18T20:01:10.445Z,6.75
2023-04-18T20:03:43.906Z,6.60
2023-04-18T20:06:17.739Z,6.85
2023-04-18T20:08:53.725Z,5.85
2023-04-18T20:11:20.492Z,6.63
2023-04-18T20:13:53.802Z,6.63
2023-04-18T20:16:22.282Z,6.40
2023-04-18T20:18:56.775Z,6.45
2023-04-18T20:21:29.858Z,6.90
2023-04-18T20:24:03.739Z,6.25
2023-04-18T20:26:31.479Z,6.88
2023-04-18T20:29:04.849Z,5.72
2023-04-18T20:31:31.667Z,6.05
2023-04-18T20:33:58.595Z,6.85
2023-04-18T20:36:31.789Z,6.75
2023-04-18T20:39:04.882Z,6.32
2023-04-18T20:41:32.761Z,5.65
2023-04-18T20:44:06.864Z,6.03
2023-04-18T20:46:39.816Z,6.07
2023-04-18T20:49:10.056Z,6.25
2023-04-18T20:51:44.778Z,6.65
2023-04-18T20:54:17.953Z,6.00
2023-04-18T20:56:58.763Z,6.53
2023-04-18T20:59:25.753Z,6.50
2023-04-18T21:01:58.805Z,6.25
2023-04-18T21:04:25.790Z,6.15
2023-04-18T21:06:52.858Z,6.00
2023-04-18T21:09:25.743Z,6.45
2023-04-18T21:11:58.815Z,6.47
2023-04-18T21:14:25.675Z,6.55
2023-04-18T21:16:58.830Z,6.70
2023-04-18T21:19:25.622Z,6.07
2023-04-18T21:22:05.752Z,6.32
2023-04-18T21:24:38.816Z,6.45
2023-04-18T21:27:12.041Z,6.45
2023-04-18T21:29:38.850Z,6.70
2023-04-18T21:32:11.877Z,6.20
2023-04-18T21:34:44.841Z,6.60
2023-04-18T21:37:11.873Z,6.65
2023-04-18T21:39:44.729Z,6.05
2023-04-18T21:42:11.893Z,6.43
2023-04-18T21:44:44.798Z,6.85
2023-04-18T21:47:18.813Z,6.28
2023-04-18T21:49:45.657Z,5.82
2023-04-18T21:52:18.854Z,6.65
2023-04-18T21:54:52.248Z,6.88
2023-04-18T21:57:25.885Z,6.30
2023-04-18T21:59:52.690Z,6.57
2023-04-18T22:02:26.956Z,6.90
2023-04-18T22:04:56.860Z,6.57
2023-04-18T22:07:31.771Z,6.75
2023-04-18T22:09:59.995Z,7.13
2023-04-18T22:12:39.791Z,7.20
2023-04-18T22:15:07.006Z,7.22
2023-04-18T22:17:42.110Z,7.03
2023-04-18T22:20:09.541Z,7.35
2023-04-18T22:22:42.817Z,6.97
2023-04-18T22:25:11.850Z,6.97
2023-04-18T22:27:45.857Z,7.38
2023-04-18T22:30:13.602Z,6.85
2023-04-18T22:32:46.768Z,6.53
2023-04-18T22:35:13.974Z,7.57
2023-04-18T22:37:46.798Z,7.88
2023-04-18T22:40:20.761Z,7.68
2023-04-18T22:42:47.613Z,8.45
2023-04-18T22:45:20.842Z,8.02
2023-04-18T22:47:47.789Z,8.20
2023-04-18T22:50:21.862Z,8.30
2023-04-18T22:52:48.695Z,8.10
2023-04-18T22:55:28.786Z,8.70
2023-04-18T22:57:55.626Z,8.57
2023-04-18T23:00:28.853Z,8.40
2023-04-18T23:02:55.749Z,9.32
2023-04-18T23:05:28.847Z,9.23
2023-04-18T23:08:01.825Z,8.50
2023-04-18T23:10:34.798Z,8.20
2023-04-18T23:13:07.832Z,9.02
2023-04-18T23:15:34.672Z,9.85
2023-04-18T23:18:07.897Z,9.23
2023-04-18T23:20:44.968Z,9.27
2023-04-18T23:23:18.912Z,9.05
2023-04-18T23:25:45.853Z,8.77
2023-04-18T23:28:19.909Z,9.23
2023-04-18T23:30:48.278Z,8.23
2023-04-18T23:33:21.860Z,10.00
2023-04-18T23:35:48.616Z,9.15
2023-04-18T23:38:21.847Z,9.40
2023-04-18T23:40:54.829Z,9.40
2023-04-18T23:43:27.882Z,9.05
2023-04-18T23:46:00.854Z,9.30
2023-04-18T23:48:27.769Z,9.27
2023-04-18T23:51:00.843Z,8.85
2023-04-18T23:53:27.503Z,9.13
2023-04-18T23:56:07.874Z,9.43
2023-04-18T23:58:34.735Z,9.27
